createdAt,value
2022-11-18T00:01:25.685Z,7.80
2022-11-18T00:03:54.459Z,7.70
2022-11-18T00:06:25.701Z,7.70
2022-11-18T00:08:54.659Z,7.70
2022-11-18T00:11:42.672Z,7.80
2022-11-18T00:14:23.594Z,7.70
2022-11-18T00:16:54.845Z,7.60
2022-11-18T00:19:25.201Z,7.60
2022-11-18T00:21:54.954Z,7.70
2022-11-18T00:24:23.772Z,7.70
2022-11-18T00:26:52.217Z,7.70
2022-11-18T00:29:20.729Z,7.60
2022-11-18T00:31:49.536Z,7.50
2022-11-18T00:34:19.213Z,7.50
2022-11-18T00:36:48.183Z,7.60
2022-11-18T00:39:21.414Z,7.50
2022-11-18T00:42:07.399Z,7.40
2022-11-18T00:44:35.876Z,7.50
2022-11-18T00:47:05.258Z,7.50
2022-11-18T00:49:33.355Z,7.50
2022-11-18T00:52:02.269Z,7.50
2022-11-18T00:54:31.720Z,7.40
2022-11-18T00:56:59.780Z,7.40
2022-11-18T00:59:27.928Z,7.30
2022-11-18T01:01:56.105Z,7.30
2022-11-18T01:04:24.963Z,7.30
2022-11-18T01:06:53.101Z,7.30
2022-11-18T01:09:21.523Z,7.40
2022-11-18T01:12:08.652Z,7.30
2022-11-18T01:14:36.941Z,7.30
2022-11-18T01:17:05.001Z,7.30
2022-11-18T01:19:33.032Z,7.20
2022-11-18T01:22:03.412Z,7.30
2022-11-18T01:24:32.268Z,7.20
2022-11-18T01:27:02.645Z,7.20
2022-11-18T01:29:30.873Z,7.20
2022-11-18T01:32:23.422Z,7.20
2022-11-18T01:34:46.916Z,7.20
2022-11-18T01:37:16.481Z,7.10
2022-11-18T01:39:44.648Z,7.10
2022-11-18T01:42:16.810Z,7.10
2022-11-18T01:45:29.712Z,7.10
2022-11-18T01:48:03.841Z,7.10
2022-11-18T01:50:33.804Z,7.10
2022-11-18T01:53:07.835Z,7.10
2022-11-18T01:55:39.284Z,7.00
2022-11-18T01:58:20.142Z,7.00
2022-11-18T02:00:48.101Z,7.00
2022-11-18T02:03:18.505Z,7.00
2022-11-18T02:05:48.478Z,7.00
2022-11-18T02:08:18.826Z,7.00
2022-11-18T02:10:47.122Z,7.00
2022-11-18T02:13:16.869Z,7.00
2022-11-18T02:15:52.279Z,7.00
2022-11-18T02:18:30.066Z,7.00
2022-11-18T02:21:07.573Z,7.00
2022-11-18T02:24:00.977Z,6.90
2022-11-18T02:27:05.024Z,6.90
2022-11-18T02:29:43.588Z,7.00
2022-11-18T02:32:17.459Z,7.00
2022-11-18T02:34:51.647Z,6.90
2022-11-18T02:37:26.230Z,6.90
2022-11-18T02:39:59.947Z,6.90
2022-11-18T02:42:30.762Z,6.90
2022-11-18T02:45:04.775Z,6.90
2022-11-18T02:47:36.481Z,6.90
2022-11-18T02:50:07.904Z,6.90
2022-11-18T02:52:39.388Z,7.00
2022-11-18T02:55:12.473Z,7.00
2022-11-18T02:57:43.362Z,7.00
2022-11-18T03:00:14.893Z,7.00
2022-11-18T03:02:44.527Z,7.00
2022-11-18T03:05:19.761Z,7.10
2022-11-18T03:07:52.600Z,7.10
2022-11-18T03:10:22.986Z,7.00
2022-11-18T03:12:57.630Z,7.00
2022-11-18T03:15:35.849Z,7.00
2022-11-18T03:18:17.915Z,7.10
2022-11-18T03:20:51.424Z,7.10
2022-11-18T03:23:29.275Z,7.10
2022-11-18T03:26:00.419Z,7.10
2022-11-18T03:28:33.934Z,7.10
2022-11-18T03:31:08.693Z,7.10
2022-11-18T03:33:41.833Z,7.10
2022-11-18T03:36:14.193Z,7.10
2022-11-18T03:38:49.049Z,7.20
2022-11-18T03:41:20.002Z,7.10
2022-11-18T03:43:51.072Z,7.20
2022-11-18T03:46:24.884Z,7.10
2022-11-18T03:48:56.144Z,7.10
2022-11-18T03:51:28.187Z,7.10
2022-11-18T03:54:01.404Z,7.10
2022-11-18T03:56:37.173Z,7.10
2022-11-18T03:59:09.738Z,7.10
2022-11-18T04:01:44.943Z,7.10
2022-11-18T04:04:14.208Z,7.10
2022-11-18T04:06:48.303Z,7.10
2022-11-18T04:09:21.120Z,7.10
2022-11-18T04:12:04.404Z,7.10
2022-11-18T04:14:33.663Z,7.10
2022-11-18T04:17:09.030Z,7.00
2022-11-18T04:19:37.364Z,7.00
2022-11-18T04:22:05.529Z,7.00
2022-11-18T04:24:33.803Z,6.90
2022-11-18T04:27:03.626Z,6.80
2022-11-18T04:29:32.254Z,6.80
2022-11-18T04:32:00.622Z,6.80
2022-11-18T04:34:30.904Z,6.80
2022-11-18T04:36:59.737Z,6.80
2022-11-18T04:39:27.764Z,6.80
2022-11-18T04:41:58.669Z,6.80
2022-11-18T04:44:28.208Z,6.80
2022-11-18T04:46:57.327Z,6.80
2022-11-18T04:49:26.898Z,6.80
2022-11-18T04:51:56.705Z,6.80
2022-11-18T04:54:26.226Z,6.80
2022-11-18T04:56:55.003Z,6.80
2022-11-18T04:59:24.910Z,6.80
2022-11-18T05:01:53.608Z,6.90
2022-11-18T05:04:23.931Z,6.90
2022-11-18T05:06:52.827Z,6.90
2022-11-18T05:09:26.088Z,6.90
2022-11-18T05:12:14.599Z,6.90
2022-11-18T05:14:50.794Z,6.90
2022-11-18T05:17:20.017Z,7.00
2022-11-18T05:19:48.200Z,6.90
2022-11-18T05:22:16.589Z,6.90
2022-11-18T05:24:46.099Z,6.90
2022-11-18T05:27:14.991Z,6.90
2022-11-18T05:29:43.067Z,7.00
2022-11-18T05:32:11.756Z,6.90
2022-11-18T05:34:43.342Z,6.90
2022-11-18T05:37:11.853Z,6.90
2022-11-18T05:39:41.079Z,7.00
2022-11-18T05:42:28.571Z,6.90
2022-11-18T05:44:58.798Z,6.90
2022-11-18T05:47:27.508Z,6.90
2022-11-18T05:49:55.564Z,6.90
2022-11-18T05:52:23.614Z,6.80
2022-11-18T05:54:52.752Z,6.80
2022-11-18T05:57:22.251Z,6.80
2022-11-18T05:59:50.328Z,6.80
2022-11-18T06:02:22.722Z,6.70
2022-11-18T06:04:53.534Z,6.70
2022-11-18T06:07:26.900Z,6.70
2022-11-18T06:10:00.854Z,6.60
2022-11-18T06:12:36.803Z,6.60
2022-11-18T06:15:09.366Z,6.70
2022-11-18T06:17:42.949Z,6.70
2022-11-18T06:20:12.168Z,6.70
2022-11-18T06:22:46.083Z,6.70
2022-11-18T06:25:14.984Z,6.70
2022-11-18T06:27:45.009Z,6.70
2022-11-18T06:30:14.269Z,6.70
2022-11-18T06:32:42.361Z,6.70
2022-11-18T06:35:10.971Z,6.70
2022-11-18T06:37:39.200Z,6.70
2022-11-18T06:40:08.346Z,6.80
2022-11-18T06:42:53.736Z,6.70
2022-11-18T06:45:23.302Z,6.80
2022-11-18T06:47:51.337Z,6.80
2022-11-18T06:50:19.434Z,6.80
2022-11-18T06:52:47.493Z,6.70
2022-11-18T06:55:15.583Z,6.70
2022-11-18T06:57:43.507Z,6.70
2022-11-18T07:00:12.670Z,6.70
2022-11-18T07:02:42.241Z,6.80
2022-11-18T07:05:10.430Z,6.70
2022-11-18T07:07:42.013Z,6.70
2022-11-18T07:10:10.910Z,6.70
2022-11-18T07:12:39.005Z,6.70
2022-11-18T07:15:07.913Z,6.70
2022-11-18T07:17:35.940Z,6.70
2022-11-18T07:20:05.765Z,6.70
2022-11-18T07:22:33.869Z,6.70
2022-11-18T07:25:02.505Z,6.80
2022-11-18T07:27:30.697Z,6.70
2022-11-18T07:29:58.763Z,6.80
2022-11-18T07:32:26.779Z,6.70
2022-11-18T07:34:54.817Z,6.80
2022-11-18T07:37:24.390Z,6.80
2022-11-18T07:39:52.329Z,6.70
2022-11-18T07:42:20.400Z,6.70
2022-11-18T07:44:48.398Z,6.80
2022-11-18T07:47:16.519Z,6.80
2022-11-18T07:49:44.578Z,6.80
2022-11-18T07:52:14.754Z,6.90
2022-11-18T07:54:44.313Z,6.90
2022-11-18T07:57:12.298Z,7.00
2022-11-18T07:59:40.253Z,6.90
2022-11-18T08:02:08.263Z,6.90
2022-11-18T08:04:39.272Z,6.90
2022-11-18T08:07:10.127Z,7.00
2022-11-18T08:09:38.366Z,7.00
2022-11-18T08:12:08.642Z,7.00
2022-11-18T08:14:36.868Z,7.00
2022-11-18T08:17:06.479Z,7.00
2022-11-18T08:19:35.889Z,7.00
2022-11-18T08:22:04.953Z,7.00
2022-11-18T08:24:33.007Z,7.00
2022-11-18T08:27:01.113Z,7.00
2022-11-18T08:29:30.761Z,7.00
2022-11-18T08:31:58.944Z,7.00
2022-11-18T08:34:33.636Z,7.00
2022-11-18T08:37:01.708Z,7.00
2022-11-18T08:39:29.823Z,7.00
2022-11-18T08:41:59.902Z,7.00
2022-11-18T08:44:28.012Z,7.10
2022-11-18T08:46:57.525Z,7.20
2022-11-18T08:49:31.130Z,7.10
2022-11-18T08:52:00.705Z,7.10
2022-11-18T08:54:28.815Z,7.10
2022-11-18T08:57:08.465Z,7.10
2022-11-18T08:59:42.441Z,7.10
2022-11-18T09:02:20.531Z,7.10
2022-11-18T09:04:48.812Z,7.10
2022-11-18T09:07:23.064Z,7.20
2022-11-18T09:09:51.633Z,7.20
2022-11-18T09:12:19.838Z,7.10
2022-11-18T09:17:37.448Z,7.10
2022-11-18T09:20:06.365Z,7.00
2022-11-18T09:22:37.549Z,7.00
2022-11-18T09:25:06.039Z,7.00
2022-11-18T09:27:34.109Z,6.90
2022-11-18T09:30:02.193Z,6.90
2022-11-18T09:32:30.349Z,6.90
2022-11-18T09:34:59.723Z,6.80
2022-11-18T09:37:27.971Z,6.90
2022-11-18T09:39:56.192Z,6.90
2022-11-18T09:42:43.796Z,6.90
2022-11-18T09:45:24.476Z,6.90
2022-11-18T09:47:53.499Z,6.90
2022-11-18T09:50:48.448Z,6.80
2022-11-18T09:53:20.969Z,6.80
2022-11-18T09:55:50.129Z,6.80
2022-11-18T09:58:22.632Z,6.80
2022-11-18T10:00:50.602Z,6.80
2022-11-18T10:03:27.206Z,6.70
2022-11-18T10:06:02.835Z,6.70
2022-11-18T10:08:37.736Z,6.70
2022-11-18T10:11:15.886Z,6.60
2022-11-18T10:13:55.181Z,6.60
2022-11-18T10:16:42.180Z,6.60
2022-11-18T10:19:25.442Z,6.60
2022-11-18T10:22:09.629Z,6.50
2022-11-18T10:24:46.271Z,6.50
2022-11-18T10:27:16.411Z,6.50
2022-11-18T10:29:45.771Z,6.50
2022-11-18T10:32:16.239Z,6.50
2022-11-18T10:34:49.760Z,6.50
2022-11-18T10:37:52.587Z,6.50
2022-11-18T10:40:25.934Z,6.50
2022-11-18T10:42:54.262Z,6.50
2022-11-18T10:45:28.182Z,6.50
2022-11-18T10:48:08.143Z,6.50
2022-11-18T10:50:37.759Z,6.50
2022-11-18T10:53:30.861Z,6.60
2022-11-18T10:56:00.113Z,6.50
2022-11-18T10:58:31.075Z,6.40
2022-11-18T11:01:07.029Z,6.40
2022-11-18T11:03:38.949Z,6.40
2022-11-18T11:06:22.820Z,6.30
2022-11-18T11:08:54.538Z,6.30
2022-11-18T11:11:28.789Z,6.30
2022-11-18T11:14:04.652Z,6.30
2022-11-18T11:16:37.349Z,6.30
2022-11-18T11:19:06.950Z,6.30
2022-11-18T11:21:34.930Z,6.40
2022-11-18T11:24:10.281Z,6.50
2022-11-18T11:30:03.330Z,6.60
2022-11-18T11:32:42.764Z,6.60
2022-11-18T11:35:17.314Z,6.60
2022-11-18T11:37:53.628Z,6.60
2022-11-18T11:40:34.754Z,6.60
2022-11-18T11:43:21.815Z,6.60
2022-11-18T11:46:06.401Z,6.60
2022-11-18T11:48:46.790Z,6.60
2022-11-18T11:51:21.109Z,6.50
2022-11-18T11:54:05.339Z,6.50
2022-11-18T11:56:38.438Z,6.50
2022-11-18T11:59:14.561Z,6.50
2022-11-18T12:01:55.076Z,6.40
2022-11-18T12:04:36.116Z,6.50
2022-11-18T12:07:06.184Z,6.50
2022-11-18T12:09:47.397Z,6.50
2022-11-18T12:12:38.424Z,6.60
2022-11-18T12:15:17.662Z,6.60
2022-11-18T12:17:52.108Z,6.60
2022-11-18T12:20:41.258Z,6.60
2022-11-18T12:23:17.837Z,6.60
2022-11-18T12:25:57.643Z,6.60
2022-11-18T12:28:45.235Z,6.70
2022-11-18T12:31:36.898Z,6.60
2022-11-18T12:34:19.581Z,6.60
2022-11-18T12:36:48.931Z,6.60
2022-11-18T12:39:48.510Z,6.50
2022-11-18T12:42:59.071Z,6.50
2022-11-18T12:45:59.416Z,6.50
2022-11-18T12:48:36.654Z,6.40
2022-11-18T12:51:27.183Z,6.30
2022-11-18T12:54:01.335Z,6.40
2022-11-18T12:56:33.517Z,6.30
2022-11-18T12:59:03.485Z,6.20
2022-11-18T13:01:35.386Z,6.30
2022-11-18T13:04:09.389Z,6.20
2022-11-18T13:06:40.277Z,6.20
2022-11-18T13:09:16.514Z,6.20
2022-11-18T13:11:55.023Z,6.20
2022-11-18T13:14:46.547Z,6.10
2022-11-18T13:17:46.396Z,6.10
2022-11-18T13:20:22.804Z,6.00
2022-11-18T13:23:08.700Z,5.90
2022-11-18T13:25:36.865Z,5.90
2022-11-18T13:28:13.501Z,5.80
2022-11-18T13:30:50.233Z,5.70
2022-11-18T13:33:19.687Z,5.70
2022-11-18T13:35:48.852Z,5.60
2022-11-18T13:38:27.960Z,5.60
2022-11-18T13:41:07.845Z,5.60
2022-11-18T13:43:36.595Z,5.60
2022-11-18T13:46:07.933Z,5.60
2022-11-18T13:48:48.901Z,5.60
2022-11-18T13:51:17.568Z,5.70
2022-11-18T13:53:46.035Z,5.80
2022-11-18T13:56:20.154Z,5.70
2022-11-18T14:01:47.832Z,5.80
2022-11-18T14:04:21.875Z,5.90
2022-11-18T14:06:49.965Z,5.90
2022-11-18T14:09:24.998Z,5.90
2022-11-18T14:12:01.580Z,5.90
2022-11-18T14:14:32.004Z,5.90
2022-11-18T14:17:17.252Z,6.00
2022-11-18T14:19:47.682Z,6.00
2022-11-18T14:22:18.858Z,6.00
2022-11-18T14:24:55.792Z,6.00
2022-11-18T14:27:36.372Z,6.00
2022-11-18T14:30:35.113Z,6.00
2022-11-18T14:33:21.190Z,6.10
2022-11-18T14:35:58.197Z,6.10
2022-11-18T14:38:52.052Z,6.10
2022-11-18T14:41:44.747Z,6.10
2022-11-18T14:44:14.404Z,6.10
2022-11-18T14:46:44.954Z,6.10
2022-11-18T14:49:16.775Z,6.10
2022-11-18T14:51:46.851Z,6.10
2022-11-18T14:54:20.736Z,6.20
2022-11-18T14:56:56.582Z,6.20
2022-11-18T14:59:24.548Z,6.20
2022-11-18T15:01:52.590Z,6.20
2022-11-18T15:04:22.307Z,6.20
2022-11-18T15:06:51.846Z,6.20
2022-11-18T15:09:19.999Z,6.30
2022-11-18T15:11:48.423Z,6.20
2022-11-18T15:14:16.806Z,6.20
2022-11-18T15:16:45.178Z,6.10
2022-11-18T15:19:16.585Z,6.10
2022-11-18T15:21:45.400Z,6.20
2022-11-18T15:24:15.544Z,6.10
2022-11-18T15:26:46.076Z,6.00
2022-11-18T15:29:18.701Z,6.00
2022-11-18T15:31:46.711Z,6.00
2022-11-18T15:34:14.944Z,5.90
2022-11-18T15:36:43.033Z,6.00
2022-11-18T15:39:11.698Z,6.10
2022-11-18T15:41:42.738Z,6.00
2022-11-18T15:44:12.205Z,6.00
2022-11-18T15:46:40.537Z,6.00
2022-11-18T15:49:12.053Z,6.00
2022-11-18T15:51:40.713Z,6.00
2022-11-18T15:54:08.680Z,6.00
2022-11-18T15:56:37.258Z,6.00
2022-11-18T15:59:08.028Z,5.90
2022-11-18T16:01:37.630Z,5.90
2022-11-18T16:04:09.070Z,5.90
2022-11-18T16:06:37.624Z,5.90
2022-11-18T16:09:06.779Z,5.90
2022-11-18T16:11:52.131Z,5.90
2022-11-18T16:14:26.296Z,6.00
2022-11-18T16:16:57.250Z,6.00
2022-11-18T16:19:31.253Z,5.90
2022-11-18T16:21:59.250Z,6.00
2022-11-18T16:24:33.514Z,6.00
2022-11-18T16:27:04.763Z,6.00
2022-11-18T16:29:34.416Z,6.00
2022-11-18T16:32:02.529Z,6.00
2022-11-18T16:34:30.885Z,6.00
2022-11-18T16:37:01.243Z,6.10
2022-11-18T16:39:34.578Z,6.10
2022-11-18T16:42:09.252Z,6.10
2022-11-18T16:44:40.068Z,6.10
2022-11-18T16:47:14.373Z,6.10
2022-11-18T16:49:47.453Z,6.00
2022-11-18T16:52:30.308Z,6.00
2022-11-18T16:54:58.398Z,6.00
2022-11-18T16:57:28.612Z,6.00
2022-11-18T16:59:58.143Z,6.00
2022-11-18T17:02:26.517Z,5.90
2022-11-18T17:05:01.903Z,5.80
2022-11-18T17:07:35.437Z,5.90
2022-11-18T17:10:19.483Z,5.80
2022-11-18T17:12:53.084Z,5.80
2022-11-18T17:15:22.558Z,5.90
2022-11-18T17:17:55.246Z,5.90
2022-11-18T17:20:23.335Z,5.90
2022-11-18T17:22:53.552Z,6.00
2022-11-18T17:25:21.540Z,5.90
2022-11-18T17:27:49.770Z,5.90
2022-11-18T17:30:18.385Z,5.90
2022-11-18T17:32:48.329Z,5.90
2022-11-18T17:35:18.250Z,5.90
2022-11-18T17:37:49.568Z,5.90
2022-11-18T17:40:17.865Z,5.90
2022-11-18T17:42:50.665Z,5.90
2022-11-18T17:45:18.864Z,6.00
2022-11-18T17:47:48.692Z,6.00
2022-11-18T17:50:16.906Z,6.00
2022-11-18T17:52:45.037Z,6.00
2022-11-18T17:55:13.060Z,6.00
2022-11-18T17:57:42.885Z,6.10
2022-11-18T18:00:12.413Z,6.10
2022-11-18T18:02:40.452Z,6.10
2022-11-18T18:05:10.264Z,6.10
2022-11-18T18:07:38.446Z,6.00
2022-11-18T18:10:07.360Z,6.10
2022-11-18T18:12:54.202Z,6.10
2022-11-18T18:15:22.174Z,6.10
2022-11-18T18:17:50.229Z,6.10
2022-11-18T18:20:22.311Z,6.00
2022-11-18T18:22:51.338Z,6.00
2022-11-18T18:25:21.314Z,6.00
2022-11-18T18:27:49.232Z,6.00
2022-11-18T18:30:18.239Z,6.00
2022-11-18T18:32:52.076Z,6.00
2022-11-18T18:35:30.050Z,6.00
2022-11-18T18:37:58.392Z,5.90
2022-11-18T18:40:26.421Z,5.80
2022-11-18T18:42:54.403Z,5.70
2022-11-18T18:45:40.254Z,5.70
2022-11-18T18:48:08.287Z,5.70
2022-11-18T18:50:37.697Z,5.60
2022-11-18T18:53:07.162Z,5.70
2022-11-18T18:55:45.433Z,5.70
2022-11-18T18:58:13.586Z,5.60
2022-11-18T19:00:41.497Z,5.60
2022-11-18T19:03:09.485Z,5.50
2022-11-18T19:06:16.937Z,5.50
2022-11-18T19:08:29.444Z,5.40
2022-11-18T19:10:57.563Z,5.40
2022-11-18T19:13:24.470Z,5.40
2022-11-18T19:15:52.523Z,5.40
2022-11-18T19:18:23.499Z,5.30
2022-11-18T19:20:53.012Z,5.30
2022-11-18T19:23:20.999Z,5.30
2022-11-18T19:25:49.175Z,5.30
2022-11-18T19:28:17.387Z,5.40
2022-11-18T19:30:51.071Z,5.30
2022-11-18T19:33:19.121Z,5.30
2022-11-18T19:35:47.376Z,5.20
2022-11-18T19:38:17.464Z,5.30
2022-11-18T19:40:47.747Z,5.30
2022-11-18T19:43:16.342Z,5.30
2022-11-18T19:45:51.562Z,5.40
2022-11-18T19:48:26.267Z,5.30
2022-11-18T19:51:04.636Z,5.40
2022-11-18T19:53:36.239Z,5.40
2022-11-18T19:56:07.132Z,5.40
2022-11-18T19:58:37.845Z,5.50
2022-11-18T20:01:17.363Z,5.50
2022-11-18T20:03:47.580Z,5.50
2022-11-18T20:06:17.143Z,5.40
2022-11-18T20:08:49.123Z,5.40
2022-11-18T20:11:19.364Z,5.40
2022-11-18T20:13:48.384Z,5.30
2022-11-18T20:16:18.784Z,5.30
2022-11-18T20:18:54.692Z,5.20
2022-11-18T20:21:30.823Z,5.10
2022-11-18T20:24:02.078Z,5.10
2022-11-18T20:26:33.060Z,5.10
2022-11-18T20:29:01.246Z,5.00
2022-11-18T20:31:30.294Z,5.00
2022-11-18T20:33:58.869Z,4.90
2022-11-18T20:36:31.222Z,4.90
2022-11-18T20:39:03.068Z,4.90
2022-11-18T20:41:32.019Z,5.00
2022-11-18T20:44:01.304Z,4.90
2022-11-18T20:46:29.583Z,4.90
2022-11-18T20:48:58.823Z,4.90
2022-11-18T20:51:29.623Z,4.90
2022-11-18T20:54:00.602Z,4.90
2022-11-18T20:56:29.430Z,4.90
2022-11-18T20:58:58.386Z,4.80
2022-11-18T21:01:34.097Z,4.80
2022-11-18T21:04:03.614Z,4.80
2022-11-18T21:06:34.306Z,4.80
2022-11-18T21:09:06.630Z,4.80
2022-11-18T21:11:35.797Z,4.80
2022-11-18T21:14:25.615Z,4.80
2022-11-18T21:16:55.403Z,4.80
2022-11-18T21:19:24.225Z,4.80
2022-11-18T21:21:52.721Z,4.70
2022-11-18T21:24:24.865Z,4.70
2022-11-18T21:26:55.381Z,4.70
2022-11-18T21:29:24.636Z,4.70
2022-11-18T21:31:53.655Z,4.70
2022-11-18T21:34:22.259Z,4.60
2022-11-18T21:36:54.340Z,4.60
2022-11-18T21:39:25.379Z,4.60
2022-11-18T21:41:56.669Z,4.60
2022-11-18T21:44:26.052Z,4.60
2022-11-18T21:46:54.390Z,4.70
2022-11-18T21:49:23.073Z,4.80
2022-11-18T21:51:51.674Z,4.80
2022-11-18T21:54:19.979Z,4.80
2022-11-18T21:56:49.858Z,4.90
2022-11-18T21:59:18.449Z,4.90
2022-11-18T22:01:47.187Z,4.90
2022-11-18T22:04:33.230Z,4.90
2022-11-18T22:07:01.296Z,5.00
2022-11-18T22:09:35.902Z,5.00
2022-11-18T22:12:07.912Z,5.00
2022-11-18T22:14:36.197Z,5.10
2022-11-18T22:17:04.703Z,5.10
2022-11-18T22:19:33.027Z,5.10
2022-11-18T22:22:01.623Z,5.10
2022-11-18T22:24:29.680Z,5.10
2022-11-18T22:26:58.417Z,5.10
2022-11-18T22:29:27.917Z,5.10
2022-11-18T22:31:55.986Z,5.10
2022-11-18T22:34:24.088Z,5.00
2022-11-18T22:36:52.097Z,5.00
2022-11-18T22:39:20.246Z,5.00
2022-11-18T22:42:05.975Z,4.90
2022-11-18T22:44:36.004Z,4.90
2022-11-18T22:47:04.171Z,4.80
2022-11-18T22:49:32.209Z,4.80
2022-11-18T22:52:00.474Z,4.80
2022-11-18T22:54:38.919Z,4.80
2022-11-18T22:57:07.591Z,4.80
2022-11-18T22:59:37.174Z,4.80
2022-11-18T23:02:05.413Z,4.80
2022-11-18T23:04:33.441Z,4.90
2022-11-18T23:07:01.506Z,4.90
2022-11-18T23:09:29.670Z,4.90
2022-11-18T23:12:15.326Z,4.90
2022-11-18T23:14:44.835Z,5.00
2022-11-18T23:17:12.916Z,5.00
2022-11-18T23:19:43.681Z,5.00
2022-11-18T23:22:11.875Z,5.10
2022-11-18T23:24:40.258Z,5.10
2022-11-18T23:27:08.489Z,5.10
2022-11-18T23:29:36.672Z,5.10
2022-11-18T23:32:06.492Z,5.10
2022-11-18T23:34:34.528Z,5.10
2022-11-18T23:37:02.596Z,5.20
2022-11-18T23:39:30.583Z,5.30
2022-11-18T23:41:58.580Z,5.30
2022-11-18T23:44:40.468Z,5.30
2022-11-18T23:47:10.082Z,5.40
2022-11-18T23:49:38.118Z,5.30
2022-11-18T23:52:06.570Z,5.30
2022-11-18T23:54:35.161Z,5.40
2022-11-18T23:57:05.180Z,5.50
2022-11-18T23:59:33.805Z,5.40
